sensor_id;sensor_type;location;lat;lon;timestamp;P1;durP1;ratioP1;P2;durP2;ratioP2
54247;SDS011;40161;39.768;2.722;2023-03-05T00:01:21;49.40;;;36.47;;
54247;SDS011;40161;39.768;2.722;2023-03-05T00:03:49;49.70;;;36.05;;
54247;SDS011;40161;39.768;2.722;2023-03-05T00:06:18;50.83;;;36.03;;
54247;SDS011;40161;39.768;2.722;2023-03-05T00:08:45;47.25;;;35.00;;
54247;SDS011;40161;39.768;2.722;2023-03-05T00:11:12;49.72;;;36.83;;
54247;SDS011;40161;39.768;2.722;2023-03-05T00:13:38;47.25;;;32.20;;
54247;SDS011;40161;39.768;2.722;2023-03-05T00:16:04;51.47;;;35.83;;
54247;SDS011;40161;39.768;2.722;2023-03-05T00:18:31;48.63;;;35.63;;
54247;SDS011;40161;39.768;2.722;2023-03-05T00:20:57;48.60;;;35.90;;
54247;SDS011;40161;39.768;2.722;2023-03-05T00:23:23;48.97;;;37.25;;
54247;SDS011;40161;39.768;2.722;2023-03-05T00:25:48;47.88;;;34.83;;
54247;SDS011;40161;39.768;2.722;2023-03-05T00:28:14;42.70;;;30.35;;
54247;SDS011;40161;39.768;2.722;2023-03-05T00:30:39;45.10;;;31.98;;
54247;SDS011;40161;39.768;2.722;2023-03-05T00:33:05;47.75;;;34.78;;
54247;SDS011;40161;39.768;2.722;2023-03-05T00:35:37;49.38;;;35.20;;
54247;SDS011;40161;39.768;2.722;2023-03-05T00:38:06;48.42;;;35.55;;
54247;SDS011;40161;39.768;2.722;2023-03-05T00:40:36;44.67;;;31.42;;
54247;SDS011;40161;39.768;2.722;2023-03-05T00:43:02;42.83;;;32.13;;
54247;SDS011;40161;39.768;2.722;2023-03-05T00:45:28;39.78;;;28.90;;
54247;SDS011;40161;39.768;2.722;2023-03-05T00:47:53;34.78;;;25.17;;
54247;SDS011;40161;39.768;2.722;2023-03-05T00:50:19;36.20;;;26.85;;
54247;SDS011;40161;39.768;2.722;2023-03-05T00:52:44;37.38;;;28.42;;
54247;SDS011;40161;39.768;2.722;2023-03-05T00:55:10;34.28;;;26.30;;
54247;SDS011;40161;39.768;2.722;2023-03-05T00:57:35;37.22;;;26.98;;
54247;SDS011;40161;39.768;2.722;2023-03-05T01:00:01;35.97;;;26.52;;
54247;SDS011;40161;39.768;2.722;2023-03-05T01:02:26;38.05;;;26.92;;
54247;SDS011;40161;39.768;2.722;2023-03-05T01:04:52;38.17;;;27.30;;
54247;SDS011;40161;39.768;2.722;2023-03-05T01:07:17;36.88;;;26.63;;
54247;SDS011;40161;39.768;2.722;2023-03-05T01:09:43;34.90;;;24.98;;
54247;SDS011;40161;39.768;2.722;2023-03-05T01:12:09;32.60;;;21.98;;
54247;SDS011;40161;39.768;2.722;2023-03-05T01:14:34;27.67;;;19.65;;
54247;SDS011;40161;39.768;2.722;2023-03-05T01:17:00;27.55;;;19.42;;
54247;SDS011;40161;39.768;2.722;2023-03-05T01:19:27;29.58;;;19.10;;
54247;SDS011;40161;39.768;2.722;2023-03-05T01:21:52;29.77;;;21.42;;
54247;SDS011;40161;39.768;2.722;2023-03-05T01:24:19;27.77;;;19.55;;
54247;SDS011;40161;39.768;2.722;2023-03-05T01:26:45;25.00;;;18.42;;
54247;SDS011;40161;39.768;2.722;2023-03-05T01:29:11;22.67;;;17.42;;
54247;SDS011;40161;39.768;2.722;2023-03-05T01:31:36;24.50;;;16.60;;
54247;SDS011;40161;39.768;2.722;2023-03-05T01:34:02;21.95;;;16.33;;
54247;SDS011;40161;39.768;2.722;2023-03-05T01:36:27;26.17;;;18.48;;
54247;SDS011;40161;39.768;2.722;2023-03-05T01:38:53;26.60;;;18.85;;
54247;SDS011;40161;39.768;2.722;2023-03-05T01:41:18;23.13;;;17.17;;
54247;SDS011;40161;39.768;2.722;2023-03-05T01:43:45;25.50;;;17.35;;
54247;SDS011;40161;39.768;2.722;2023-03-05T01:54:12;19.52;;;15.60;;
54247;SDS011;40161;39.768;2.722;2023-03-05T01:56:40;21.60;;;15.43;;
54247;SDS011;40161;39.768;2.722;2023-03-05T01:59:07;21.77;;;15.45;;
54247;SDS011;40161;39.768;2.722;2023-03-05T02:01:36;19.10;;;13.50;;
54247;SDS011;40161;39.768;2.722;2023-03-05T02:04:05;15.07;;;11.95;;
54247;SDS011;40161;39.768;2.722;2023-03-05T02:06:33;17.27;;;11.70;;
54247;SDS011;40161;39.768;2.722;2023-03-05T02:08:59;16.25;;;12.27;;
54247;SDS011;40161;39.768;2.722;2023-03-05T02:11:25;16.02;;;12.07;;
54247;SDS011;40161;39.768;2.722;2023-03-05T02:13:51;17.60;;;12.10;;
54247;SDS011;40161;39.768;2.722;2023-03-05T02:16:16;19.42;;;13.00;;
54247;SDS011;40161;39.768;2.722;2023-03-05T02:18:42;14.55;;;10.07;;
54247;SDS011;40161;39.768;2.722;2023-03-05T02:21:08;13.82;;;10.73;;
54247;SDS011;40161;39.768;2.722;2023-03-05T02:23:36;14.63;;;10.30;;
54247;SDS011;40161;39.768;2.722;2023-03-05T02:26:03;16.60;;;11.45;;
54247;SDS011;40161;39.768;2.722;2023-03-05T02:28:42;19.23;;;12.85;;
54247;SDS011;40161;39.768;2.722;2023-03-05T02:31:12;22.80;;;16.25;;
54247;SDS011;40161;39.768;2.722;2023-03-05T02:33:40;22.42;;;15.95;;
54247;SDS011;40161;39.768;2.722;2023-03-05T02:36:06;21.58;;;14.30;;
54247;SDS011;40161;39.768;2.722;2023-03-05T02:38:32;20.13;;;13.90;;
54247;SDS011;40161;39.768;2.722;2023-03-05T02:40:58;16.48;;;12.48;;
54247;SDS011;40161;39.768;2.722;2023-03-05T02:43:24;17.17;;;11.82;;
54247;SDS011;40161;39.768;2.722;2023-03-05T02:45:50;13.27;;;9.18;;
54247;SDS011;40161;39.768;2.722;2023-03-05T02:48:15;14.23;;;9.38;;
54247;SDS011;40161;39.768;2.722;2023-03-05T02:50:41;13.23;;;9.10;;
54247;SDS011;40161;39.768;2.722;2023-03-05T02:53:08;12.52;;;8.40;;
54247;SDS011;40161;39.768;2.722;2023-03-05T02:55:34;8.95;;;6.82;;
54247;SDS011;40161;39.768;2.722;2023-03-05T02:57:59;7.82;;;5.28;;
54247;SDS011;40161;39.768;2.722;2023-03-05T03:00:25;9.35;;;6.53;;
54247;SDS011;40161;39.768;2.722;2023-03-05T03:02:51;11.25;;;7.00;;
54247;SDS011;40161;39.768;2.722;2023-03-05T03:05:16;10.32;;;6.45;;
54247;SDS011;40161;39.768;2.722;2023-03-05T03:07:42;10.00;;;5.88;;
54247;SDS011;40161;39.768;2.722;2023-03-05T03:10:08;8.15;;;5.97;;
54247;SDS011;40161;39.768;2.722;2023-03-05T03:12:38;9.98;;;6.38;;
54247;SDS011;40161;39.768;2.722;2023-03-05T03:15:04;22.90;;;13.70;;
54247;SDS011;40161;39.768;2.722;2023-03-05T03:17:33;67.75;;;35.78;;
54247;SDS011;40161;39.768;2.722;2023-03-05T03:19:59;143.70;;;71.68;;
54247;SDS011;40161;39.768;2.722;2023-03-05T03:22:25;16.58;;;10.15;;
54247;SDS011;40161;39.768;2.722;2023-03-05T03:24:50;13.32;;;8.82;;
54247;SDS011;40161;39.768;2.722;2023-03-05T03:27:16;10.75;;;6.88;;
54247;SDS011;40161;39.768;2.722;2023-03-05T03:29:42;8.82;;;6.10;;
54247;SDS011;40161;39.768;2.722;2023-03-05T03:32:07;9.52;;;5.53;;
54247;SDS011;40161;39.768;2.722;2023-03-05T03:34:33;8.80;;;5.90;;
54247;SDS011;40161;39.768;2.722;2023-03-05T03:36:58;8.25;;;5.80;;
54247;SDS011;40161;39.768;2.722;2023-03-05T03:39:24;8.48;;;5.20;;
54247;SDS011;40161;39.768;2.722;2023-03-05T03:41:50;8.57;;;5.07;;
54247;SDS011;40161;39.768;2.722;2023-03-05T03:44:17;7.47;;;4.95;;
54247;SDS011;40161;39.768;2.722;2023-03-05T03:46:44;8.45;;;4.70;;
54247;SDS011;40161;39.768;2.722;2023-03-05T03:49:16;7.85;;;5.28;;
54247;SDS011;40161;39.768;2.722;2023-03-05T03:51:47;10.18;;;6.90;;
54247;SDS011;40161;39.768;2.722;2023-03-05T03:54:14;7.45;;;5.05;;
54247;SDS011;40161;39.768;2.722;2023-03-05T03:56:40;6.72;;;4.97;;
54247;SDS011;40161;39.768;2.722;2023-03-05T03:59:06;6.07;;;4.18;;
54247;SDS011;40161;39.768;2.722;2023-03-05T04:01:32;6.00;;;4.10;;
54247;SDS011;40161;39.768;2.722;2023-03-05T04:03:57;6.28;;;3.97;;
54247;SDS011;40161;39.768;2.722;2023-03-05T04:06:23;8.52;;;4.00;;
54247;SDS011;40161;39.768;2.722;2023-03-05T04:08:49;6.10;;;4.15;;
54247;SDS011;40161;39.768;2.722;2023-03-05T04:11:14;7.35;;;4.18;;
54247;SDS011;40161;39.768;2.722;2023-03-05T04:13:43;6.10;;;3.70;;
54247;SDS011;40161;39.768;2.722;2023-03-05T04:16:09;6.15;;;3.70;;
54247;SDS011;40161;39.768;2.722;2023-03-05T04:18:35;6.10;;;3.58;;
54247;SDS011;40161;39.768;2.722;2023-03-05T04:21:01;7.57;;;4.13;;
54247;SDS011;40161;39.768;2.722;2023-03-05T04:23:26;7.18;;;3.80;;
54247;SDS011;40161;39.768;2.722;2023-03-05T04:25:52;5.95;;;3.65;;
54247;SDS011;40161;39.768;2.722;2023-03-05T04:28:17;6.10;;;3.72;;
54247;SDS011;40161;39.768;2.722;2023-03-05T04:30:43;5.57;;;3.80;;
54247;SDS011;40161;39.768;2.722;2023-03-05T04:33:08;5.32;;;3.53;;
54247;SDS011;40161;39.768;2.722;2023-03-05T04:35:34;6.15;;;4.00;;
54247;SDS011;40161;39.768;2.722;2023-03-05T04:37:59;6.25;;;4.03;;
54247;SDS011;40161;39.768;2.722;2023-03-05T04:40:25;7.30;;;3.88;;
54247;SDS011;40161;39.768;2.722;2023-03-05T04:42:51;5.85;;;3.97;;
54247;SDS011;40161;39.768;2.722;2023-03-05T04:45:16;6.20;;;3.95;;
54247;SDS011;40161;39.768;2.722;2023-03-05T04:47:42;5.28;;;3.53;;
54247;SDS011;40161;39.768;2.722;2023-03-05T04:50:08;5.45;;;3.13;;
54247;SDS011;40161;39.768;2.722;2023-03-05T04:52:36;5.45;;;3.75;;
54247;SDS011;40161;39.768;2.722;2023-03-05T04:55:06;6.90;;;4.20;;
54247;SDS011;40161;39.768;2.722;2023-03-05T04:57:32;5.03;;;3.40;;
54247;SDS011;40161;39.768;2.722;2023-03-05T04:59:57;7.82;;;4.10;;
54247;SDS011;40161;39.768;2.722;2023-03-05T05:02:23;5.43;;;3.28;;
54247;SDS011;40161;39.768;2.722;2023-03-05T05:04:52;9.00;;;3.95;;
54247;SDS011;40161;39.768;2.722;2023-03-05T05:07:18;5.82;;;3.38;;
54247;SDS011;40161;39.768;2.722;2023-03-05T05:09:44;6.32;;;3.63;;
54247;SDS011;40161;39.768;2.722;2023-03-05T05:12:09;6.20;;;3.22;;
54247;SDS011;40161;39.768;2.722;2023-03-05T05:14:35;6.38;;;3.65;;
54247;SDS011;40161;39.768;2.722;2023-03-05T05:17:01;5.65;;;3.05;;
54247;SDS011;40161;39.768;2.722;2023-03-05T05:19:38;5.07;;;3.50;;
54247;SDS011;40161;39.768;2.722;2023-03-05T05:22:03;5.13;;;3.17;;
54247;SDS011;40161;39.768;2.722;2023-03-05T05:24:29;6.72;;;3.58;;
54247;SDS011;40161;39.768;2.722;2023-03-05T05:26:54;7.47;;;3.97;;
54247;SDS011;40161;39.768;2.722;2023-03-05T05:29:20;5.97;;;3.40;;
54247;SDS011;40161;39.768;2.722;2023-03-05T05:31:46;8.65;;;3.80;;
54247;SDS011;40161;39.768;2.722;2023-03-05T05:34:12;12.07;;;6.00;;
54247;SDS011;40161;39.768;2.722;2023-03-05T05:36:38;12.10;;;6.03;;
54247;SDS011;40161;39.768;2.722;2023-03-05T05:39:03;11.38;;;5.97;;
54247;SDS011;40161;39.768;2.722;2023-03-05T05:41:29;14.73;;;7.43;;
54247;SDS011;40161;39.768;2.722;2023-03-05T05:43:55;11.70;;;6.53;;
54247;SDS011;40161;39.768;2.722;2023-03-05T05:46:21;13.07;;;6.90;;
54247;SDS011;40161;39.768;2.722;2023-03-05T05:48:47;11.30;;;5.57;;
54247;SDS011;40161;39.768;2.722;2023-03-05T05:51:17;10.00;;;5.78;;
54247;SDS011;40161;39.768;2.722;2023-03-05T05:53:44;12.10;;;5.83;;
54247;SDS011;40161;39.768;2.722;2023-03-05T05:56:11;9.85;;;4.95;;
54247;SDS011;40161;39.768;2.722;2023-03-05T05:58:38;9.57;;;4.97;;
54247;SDS011;40161;39.768;2.722;2023-03-05T06:01:38;9.98;;;7.65;;
54247;SDS011;40161;39.768;2.722;2023-03-05T06:03:58;7.75;;;5.50;;
54247;SDS011;40161;39.768;2.722;2023-03-05T06:06:24;8.65;;;4.65;;
54247;SDS011;40161;39.768;2.722;2023-03-05T06:08:51;8.07;;;3.95;;
54247;SDS011;40161;39.768;2.722;2023-03-05T06:11:17;9.30;;;4.38;;
54247;SDS011;40161;39.768;2.722;2023-03-05T06:13:44;11.07;;;5.65;;
54247;SDS011;40161;39.768;2.722;2023-03-05T06:16:11;8.48;;;4.82;;
54247;SDS011;40161;39.768;2.722;2023-03-05T06:18:39;7.35;;;4.90;;
54247;SDS011;40161;39.768;2.722;2023-03-05T06:21:06;7.07;;;4.55;;
54247;SDS011;40161;39.768;2.722;2023-03-05T06:23:33;9.75;;;5.88;;
54247;SDS011;40161;39.768;2.722;2023-03-05T06:26:00;18.00;;;9.80;;
54247;SDS011;40161;39.768;2.722;2023-03-05T06:28:27;9.45;;;5.30;;
54247;SDS011;40161;39.768;2.722;2023-03-05T06:31:03;6.40;;;4.15;;
54247;SDS011;40161;39.768;2.722;2023-03-05T06:33:31;6.95;;;4.43;;
54247;SDS011;40161;39.768;2.722;2023-03-05T06:35:58;7.22;;;4.43;;
54247;SDS011;40161;39.768;2.722;2023-03-05T06:38:24;7.85;;;4.07;;
54247;SDS011;40161;39.768;2.722;2023-03-05T06:40:50;6.82;;;3.55;;
54247;SDS011;40161;39.768;2.722;2023-03-05T06:43:16;8.63;;;4.85;;
54247;SDS011;40161;39.768;2.722;2023-03-05T06:45:42;6.50;;;3.90;;
54247;SDS011;40161;39.768;2.722;2023-03-05T06:48:08;6.63;;;3.70;;
54247;SDS011;40161;39.768;2.722;2023-03-05T06:50:34;5.60;;;3.30;;
54247;SDS011;40161;39.768;2.722;2023-03-05T06:53:00;5.47;;;3.95;;
54247;SDS011;40161;39.768;2.722;2023-03-05T06:55:26;7.88;;;4.75;;
54247;SDS011;40161;39.768;2.722;2023-03-05T06:57:52;6.13;;;4.10;;
54247;SDS011;40161;39.768;2.722;2023-03-05T07:00:17;7.68;;;4.97;;
54247;SDS011;40161;39.768;2.722;2023-03-05T07:02:43;7.20;;;4.63;;
54247;SDS011;40161;39.768;2.722;2023-03-05T07:05:09;13.55;;;8.25;;
54247;SDS011;40161;39.768;2.722;2023-03-05T07:07:34;13.98;;;9.23;;
54247;SDS011;40161;39.768;2.722;2023-03-05T07:10:00;14.95;;;9.73;;
54247;SDS011;40161;39.768;2.722;2023-03-05T07:12:26;19.00;;;12.70;;
54247;SDS011;40161;39.768;2.722;2023-03-05T07:14:51;20.23;;;11.77;;
54247;SDS011;40161;39.768;2.722;2023-03-05T07:17:17;18.05;;;11.20;;
54247;SDS011;40161;39.768;2.722;2023-03-05T07:19:42;17.40;;;10.52;;
54247;SDS011;40161;39.768;2.722;2023-03-05T07:22:08;16.50;;;9.85;;
54247;SDS011;40161;39.768;2.722;2023-03-05T07:24:34;16.02;;;10.23;;
54247;SDS011;40161;39.768;2.722;2023-03-05T07:27:00;14.38;;;9.20;;
54247;SDS011;40161;39.768;2.722;2023-03-05T07:29:26;15.80;;;9.95;;
54247;SDS011;40161;39.768;2.722;2023-03-05T07:31:52;14.52;;;10.02;;
54247;SDS011;40161;39.768;2.722;2023-03-05T07:34:18;14.70;;;10.60;;
54247;SDS011;40161;39.768;2.722;2023-03-05T07:36:44;12.27;;;8.10;;
54247;SDS011;40161;39.768;2.722;2023-03-05T07:39:11;9.30;;;6.68;;
54247;SDS011;40161;39.768;2.722;2023-03-05T07:41:37;11.25;;;6.63;;
54247;SDS011;40161;39.768;2.722;2023-03-05T07:44:02;10.95;;;6.65;;
54247;SDS011;40161;39.768;2.722;2023-03-05T07:46:29;9.30;;;6.88;;
54247;SDS011;40161;39.768;2.722;2023-03-05T07:48:57;9.60;;;6.20;;
54247;SDS011;40161;39.768;2.722;2023-03-05T07:51:23;9.63;;;5.32;;
54247;SDS011;40161;39.768;2.722;2023-03-05T07:53:51;10.93;;;6.78;;
54247;SDS011;40161;39.768;2.722;2023-03-05T07:56:26;7.55;;;5.60;;
54247;SDS011;40161;39.768;2.722;2023-03-05T07:58:56;7.10;;;4.10;;
54247;SDS011;40161;39.768;2.722;2023-03-05T08:01:25;5.35;;;3.85;;
54247;SDS011;40161;39.768;2.722;2023-03-05T08:03:51;7.60;;;3.67;;
54247;SDS011;40161;39.768;2.722;2023-03-05T08:06:17;6.90;;;4.07;;
54247;SDS011;40161;39.768;2.722;2023-03-05T08:08:42;10.02;;;4.95;;
54247;SDS011;40161;39.768;2.722;2023-03-05T08:11:09;7.38;;;4.50;;
54247;SDS011;40161;39.768;2.722;2023-03-05T08:13:36;6.55;;;4.45;;
54247;SDS011;40161;39.768;2.722;2023-03-05T08:16:03;6.25;;;4.35;;
54247;SDS011;40161;39.768;2.722;2023-03-05T08:18:30;9.63;;;5.00;;
54247;SDS011;40161;39.768;2.722;2023-03-05T08:20:56;7.80;;;4.47;;
54247;SDS011;40161;39.768;2.722;2023-03-05T08:23:22;6.03;;;4.07;;
54247;SDS011;40161;39.768;2.722;2023-03-05T08:25:47;5.88;;;3.65;;
54247;SDS011;40161;39.768;2.722;2023-03-05T08:28:13;6.20;;;3.72;;
54247;SDS011;40161;39.768;2.722;2023-03-05T08:30:40;6.57;;;4.07;;
54247;SDS011;40161;39.768;2.722;2023-03-05T08:33:06;8.80;;;5.60;;
54247;SDS011;40161;39.768;2.722;2023-03-05T08:35:31;7.97;;;6.10;;
54247;SDS011;40161;39.768;2.722;2023-03-05T08:37:57;6.07;;;3.92;;
54247;SDS011;40161;39.768;2.722;2023-03-05T08:40:23;4.25;;;2.88;;
54247;SDS011;40161;39.768;2.722;2023-03-05T08:42:48;5.18;;;3.30;;
54247;SDS011;40161;39.768;2.722;2023-03-05T08:45:15;5.72;;;3.40;;
54247;SDS011;40161;39.768;2.722;2023-03-05T08:47:41;6.20;;;3.38;;
54247;SDS011;40161;39.768;2.722;2023-03-05T08:50:07;8.02;;;5.15;;
54247;SDS011;40161;39.768;2.722;2023-03-05T08:52:33;8.43;;;5.13;;
54247;SDS011;40161;39.768;2.722;2023-03-05T08:54:59;6.70;;;4.45;;
54247;SDS011;40161;39.768;2.722;2023-03-05T08:57:24;7.47;;;4.90;;
54247;SDS011;40161;39.768;2.722;2023-03-05T08:59:50;9.35;;;5.53;;
54247;SDS011;40161;39.768;2.722;2023-03-05T09:02:15;7.07;;;5.13;;
54247;SDS011;40161;39.768;2.722;2023-03-05T09:04:41;8.38;;;4.68;;
54247;SDS011;40161;39.768;2.722;2023-03-05T09:07:06;6.10;;;3.88;;
54247;SDS011;40161;39.768;2.722;2023-03-05T09:09:32;4.88;;;2.40;;
54247;SDS011;40161;39.768;2.722;2023-03-05T09:11:59;4.50;;;2.75;;
54247;SDS011;40161;39.768;2.722;2023-03-05T09:14:25;6.03;;;3.28;;
54247;SDS011;40161;39.768;2.722;2023-03-05T09:16:52;5.22;;;3.30;;
54247;SDS011;40161;39.768;2.722;2023-03-05T09:19:18;6.90;;;3.60;;
54247;SDS011;40161;39.768;2.722;2023-03-05T09:21:44;6.20;;;3.60;;
54247;SDS011;40161;39.768;2.722;2023-03-05T09:24:09;7.05;;;3.30;;
54247;SDS011;40161;39.768;2.722;2023-03-05T09:26:36;6.55;;;3.45;;
54247;SDS011;40161;39.768;2.722;2023-03-05T09:29:02;4.32;;;2.75;;
54247;SDS011;40161;39.768;2.722;2023-03-05T09:31:28;4.03;;;2.30;;
54247;SDS011;40161;39.768;2.722;2023-03-05T09:33:53;3.75;;;2.15;;
54247;SDS011;40161;39.768;2.722;2023-03-05T09:36:20;3.97;;;2.08;;
54247;SDS011;40161;39.768;2.722;2023-03-05T09:38:48;3.92;;;2.03;;
54247;SDS011;40161;39.768;2.722;2023-03-05T09:41:16;5.40;;;2.75;;
54247;SDS011;40161;39.768;2.722;2023-03-05T09:51:58;7.80;;;4.90;;
54247;SDS011;40161;39.768;2.722;2023-03-05T09:54:51;7.43;;;4.68;;
54247;SDS011;40161;39.768;2.722;2023-03-05T09:57:28;6.35;;;4.10;;
54247;SDS011;40161;39.768;2.722;2023-03-05T10:00:06;5.55;;;3.25;;
54247;SDS011;40161;39.768;2.722;2023-03-05T10:02:48;4.60;;;2.50;;
54247;SDS011;40161;39.768;2.722;2023-03-05T10:05:22;5.18;;;2.40;;
54247;SDS011;40161;39.768;2.722;2023-03-05T10:07:54;9.27;;;3.35;;
54247;SDS011;40161;39.768;2.722;2023-03-05T10:10:26;4.80;;;2.58;;
54247;SDS011;40161;39.768;2.722;2023-03-05T10:13:25;5.28;;;2.63;;
54247;SDS011;40161;39.768;2.722;2023-03-05T10:21:02;6.35;;;3.30;;
54247;SDS011;40161;39.768;2.722;2023-03-05T10:23:48;5.82;;;3.33;;
54247;SDS011;40161;39.768;2.722;2023-03-05T10:34:21;4.75;;;2.85;;
54247;SDS011;40161;39.768;2.722;2023-03-05T10:42:14;5.25;;;3.58;;
54247;SDS011;40161;39.768;2.722;2023-03-05T10:44:51;6.57;;;4.20;;
54247;SDS011;40161;39.768;2.722;2023-03-05T10:50:18;5.20;;;3.05;;
54247;SDS011;40161;39.768;2.722;2023-03-05T10:52:46;5.07;;;3.15;;
54247;SDS011;40161;39.768;2.722;2023-03-05T10:55:20;7.03;;;3.90;;
54247;SDS011;40161;39.768;2.722;2023-03-05T10:57:46;5.43;;;3.20;;
54247;SDS011;40161;39.768;2.722;2023-03-05T11:05:39;6.80;;;3.10;;
54247;SDS011;40161;39.768;2.722;2023-03-05T11:08:18;5.53;;;3.13;;
54247;SDS011;40161;39.768;2.722;2023-03-05T11:13:30;6.32;;;3.80;;
54247;SDS011;40161;39.768;2.722;2023-03-05T11:16:00;6.65;;;3.58;;
54247;SDS011;40161;39.768;2.722;2023-03-05T11:18:28;9.60;;;4.20;;
54247;SDS011;40161;39.768;2.722;2023-03-05T11:24:04;5.47;;;3.47;;
54247;SDS011;40161;39.768;2.722;2023-03-05T11:26:33;6.13;;;3.37;;
54247;SDS011;40161;39.768;2.722;2023-03-05T11:28:59;8.85;;;4.57;;
54247;SDS011;40161;39.768;2.722;2023-03-05T11:31:31;10.95;;;5.72;;
54247;SDS011;40161;39.768;2.722;2023-03-05T11:34:11;9.27;;;4.63;;
54247;SDS011;40161;39.768;2.722;2023-03-05T11:39:21;9.57;;;5.40;;
54247;SDS011;40161;39.768;2.722;2023-03-05T11:41:58;5.65;;;3.85;;
54247;SDS011;40161;39.768;2.722;2023-03-05T11:49:45;6.72;;;4.22;;
54247;SDS011;40161;39.768;2.722;2023-03-05T12:00:48;6.10;;;3.38;;
54247;SDS011;40161;39.768;2.722;2023-03-05T12:03:14;6.40;;;3.22;;
54247;SDS011;40161;39.768;2.722;2023-03-05T12:06:19;5.75;;;3.45;;
54247;SDS011;40161;39.768;2.722;2023-03-05T12:08:58;5.70;;;2.90;;
54247;SDS011;40161;39.768;2.722;2023-03-05T12:11:31;5.28;;;3.20;;
54247;SDS011;40161;39.768;2.722;2023-03-05T12:21:42;4.47;;;2.70;;
54247;SDS011;40161;39.768;2.722;2023-03-05T12:47:41;6.15;;;3.78;;
54247;SDS011;40161;39.768;2.722;2023-03-05T12:50:54;5.63;;;3.05;;
54247;SDS011;40161;39.768;2.722;2023-03-05T12:58:14;7.97;;;5.00;;
54247;SDS011;40161;39.768;2.722;2023-03-05T13:01:11;7.55;;;5.15;;
54247;SDS011;40161;39.768;2.722;2023-03-05T13:04:04;7.05;;;3.53;;
54247;SDS011;40161;39.768;2.722;2023-03-05T13:06:36;8.13;;;3.67;;
54247;SDS011;40161;39.768;2.722;2023-03-05T13:09:06;6.25;;;3.17;;
54247;SDS011;40161;39.768;2.722;2023-03-05T13:11:35;5.68;;;3.28;;
54247;SDS011;40161;39.768;2.722;2023-03-05T13:14:03;4.95;;;3.22;;
54247;SDS011;40161;39.768;2.722;2023-03-05T13:16:34;6.70;;;3.83;;
54247;SDS011;40161;39.768;2.722;2023-03-05T13:19:02;6.05;;;3.22;;
54247;SDS011;40161;39.768;2.722;2023-03-05T13:21:30;7.35;;;3.53;;
54247;SDS011;40161;39.768;2.722;2023-03-05T13:23:57;7.38;;;3.85;;
54247;SDS011;40161;39.768;2.722;2023-03-05T13:26:37;6.15;;;3.70;;
54247;SDS011;40161;39.768;2.722;2023-03-05T13:31:59;6.22;;;3.70;;
54247;SDS011;40161;39.768;2.722;2023-03-05T13:34:34;7.75;;;4.10;;
54247;SDS011;40161;39.768;2.722;2023-03-05T13:37:05;7.82;;;3.90;;
54247;SDS011;40161;39.768;2.722;2023-03-05T13:39:42;6.63;;;3.75;;
54247;SDS011;40161;39.768;2.722;2023-03-05T13:42:14;5.22;;;2.85;;
54247;SDS011;40161;39.768;2.722;2023-03-05T13:44:42;5.38;;;3.60;;
54247;SDS011;40161;39.768;2.722;2023-03-05T13:47:11;5.93;;;3.25;;
54247;SDS011;40161;39.768;2.722;2023-03-05T13:49:41;6.43;;;3.50;;
54247;SDS011;40161;39.768;2.722;2023-03-05T13:52:08;6.05;;;2.90;;
54247;SDS011;40161;39.768;2.722;2023-03-05T13:54:34;7.30;;;3.15;;
54247;SDS011;40161;39.768;2.722;2023-03-05T13:57:04;5.80;;;2.70;;
54247;SDS011;40161;39.768;2.722;2023-03-05T13:59:32;11.43;;;6.40;;
54247;SDS011;40161;39.768;2.722;2023-03-05T14:02:03;7.20;;;2.80;;
54247;SDS011;40161;39.768;2.722;2023-03-05T14:04:40;6.43;;;2.70;;
54247;SDS011;40161;39.768;2.722;2023-03-05T14:09:52;5.80;;;2.80;;
54247;SDS011;40161;39.768;2.722;2023-03-05T14:12:29;8.00;;;3.20;;
54247;SDS011;40161;39.768;2.722;2023-03-05T14:15:00;12.10;;;7.87;;
54247;SDS011;40161;39.768;2.722;2023-03-05T14:22:36;6.90;;;4.68;;
54247;SDS011;40161;39.768;2.722;2023-03-05T14:25:05;7.50;;;4.40;;
54247;SDS011;40161;39.768;2.722;2023-03-05T14:27:49;6.32;;;4.18;;
54247;SDS011;40161;39.768;2.722;2023-03-05T14:30:15;6.28;;;3.70;;
54247;SDS011;40161;39.768;2.722;2023-03-05T14:32:45;4.72;;;2.72;;
54247;SDS011;40161;39.768;2.722;2023-03-05T14:35:18;6.05;;;2.90;;
54247;SDS011;40161;39.768;2.722;2023-03-05T14:37:47;5.82;;;3.42;;
54247;SDS011;40161;39.768;2.722;2023-03-05T14:40:19;4.63;;;2.90;;
54247;SDS011;40161;39.768;2.722;2023-03-05T14:42:59;6.00;;;2.60;;
54247;SDS011;40161;39.768;2.722;2023-03-05T14:47:59;6.82;;;2.60;;
54247;SDS011;40161;39.768;2.722;2023-03-05T14:52:58;5.70;;;2.60;;
54247;SDS011;40161;39.768;2.722;2023-03-05T14:55:27;5.63;;;2.55;;
54247;SDS011;40161;39.768;2.722;2023-03-05T14:58:00;5.97;;;2.20;;
54247;SDS011;40161;39.768;2.722;2023-03-05T15:00:35;4.82;;;2.30;;
54247;SDS011;40161;39.768;2.722;2023-03-05T15:03:00;4.63;;;2.30;;
54247;SDS011;40161;39.768;2.722;2023-03-05T15:05:26;7.32;;;2.25;;
54247;SDS011;40161;39.768;2.722;2023-03-05T15:07:51;6.50;;;2.45;;
54247;SDS011;40161;39.768;2.722;2023-03-05T15:10:19;6.43;;;2.20;;
54247;SDS011;40161;39.768;2.722;2023-03-05T15:12:47;3.83;;;2.10;;
54247;SDS011;40161;39.768;2.722;2023-03-05T15:15:15;6.25;;;2.38;;
54247;SDS011;40161;39.768;2.722;2023-03-05T15:17:42;4.95;;;2.35;;
54247;SDS011;40161;39.768;2.722;2023-03-05T15:20:17;5.97;;;2.25;;
54247;SDS011;40161;39.768;2.722;2023-03-05T15:22:53;8.10;;;3.03;;
54247;SDS011;40161;39.768;2.722;2023-03-05T15:25:20;5.55;;;2.30;;
54247;SDS011;40161;39.768;2.722;2023-03-05T15:27:47;6.93;;;2.42;;
54247;SDS011;40161;39.768;2.722;2023-03-05T15:33:14;5.05;;;2.67;;
54247;SDS011;40161;39.768;2.722;2023-03-05T15:35:41;10.60;;;4.90;;
54247;SDS011;40161;39.768;2.722;2023-03-05T15:38:07;7.03;;;3.38;;
54247;SDS011;40161;39.768;2.722;2023-03-05T15:40:33;6.72;;;3.42;;
54247;SDS011;40161;39.768;2.722;2023-03-05T15:42:59;7.72;;;3.92;;
54247;SDS011;40161;39.768;2.722;2023-03-05T15:45:25;9.27;;;4.88;;
54247;SDS011;40161;39.768;2.722;2023-03-05T15:47:51;6.47;;;4.03;;
54247;SDS011;40161;39.768;2.722;2023-03-05T15:50:18;11.45;;;5.80;;
54247;SDS011;40161;39.768;2.722;2023-03-05T15:52:45;5.43;;;2.75;;
54247;SDS011;40161;39.768;2.722;2023-03-05T15:55:10;5.15;;;2.17;;
54247;SDS011;40161;39.768;2.722;2023-03-05T15:57:37;4.18;;;2.10;;
54247;SDS011;40161;39.768;2.722;2023-03-05T16:00:08;7.03;;;3.40;;
54247;SDS011;40161;39.768;2.722;2023-03-05T16:02:34;6.38;;;2.45;;
54247;SDS011;40161;39.768;2.722;2023-03-05T16:05:00;6.32;;;2.60;;
54247;SDS011;40161;39.768;2.722;2023-03-05T16:07:26;5.25;;;2.60;;
54247;SDS011;40161;39.768;2.722;2023-03-05T16:09:52;5.03;;;2.55;;
54247;SDS011;40161;39.768;2.722;2023-03-05T16:12:21;4.38;;;2.78;;
54247;SDS011;40161;39.768;2.722;2023-03-05T16:14:50;6.13;;;2.95;;
54247;SDS011;40161;39.768;2.722;2023-03-05T16:17:16;5.60;;;3.00;;
54247;SDS011;40161;39.768;2.722;2023-03-05T16:19:45;9.60;;;5.35;;
54247;SDS011;40161;39.768;2.722;2023-03-05T16:22:13;9.32;;;4.72;;
54247;SDS011;40161;39.768;2.722;2023-03-05T16:24:38;6.55;;;3.90;;
54247;SDS011;40161;39.768;2.722;2023-03-05T16:27:04;8.07;;;4.40;;
54247;SDS011;40161;39.768;2.722;2023-03-05T16:29:30;7.57;;;3.78;;
54247;SDS011;40161;39.768;2.722;2023-03-05T16:31:57;6.90;;;3.80;;
54247;SDS011;40161;39.768;2.722;2023-03-05T16:34:23;5.95;;;3.10;;
54247;SDS011;40161;39.768;2.722;2023-03-05T16:36:49;8.70;;;2.70;;
54247;SDS011;40161;39.768;2.722;2023-03-05T16:39:17;6.78;;;2.47;;
54247;SDS011;40161;39.768;2.722;2023-03-05T16:41:43;4.30;;;2.65;;
54247;SDS011;40161;39.768;2.722;2023-03-05T16:44:09;5.25;;;2.97;;
54247;SDS011;40161;39.768;2.722;2023-03-05T16:46:35;8.23;;;4.13;;